createdAt,value
2023-10-30T00:01:24.471Z,13.89
2023-10-30T00:03:51.545Z,13.90
2023-10-30T00:06:18.139Z,13.79
2023-10-30T00:08:44.609Z,13.86
2023-10-30T00:11:11.163Z,13.88
2023-10-30T00:13:37.662Z,13.90
2023-10-30T00:16:04.379Z,13.91
2023-10-30T00:18:31.683Z,13.97
2023-10-30T00:20:58.134Z,13.89
2023-10-30T00:23:25.293Z,13.93
2023-10-30T00:25:52.927Z,14.00
2023-10-30T00:28:19.861Z,13.92
2023-10-30T00:30:46.299Z,13.88
2023-10-30T00:33:13.071Z,13.81
2023-10-30T00:35:40.014Z,13.75
2023-10-30T00:38:06.393Z,13.67
2023-10-30T00:40:33.449Z,13.62
2023-10-30T00:43:00.127Z,13.64
2023-10-30T00:45:26.574Z,13.86
2023-10-30T00:47:53.104Z,13.91
2023-10-30T00:50:19.616Z,13.97
2023-10-30T00:52:46.082Z,13.95
2023-10-30T00:55:12.471Z,13.93
2023-10-30T00:57:38.920Z,14.00
2023-10-30T01:00:06.580Z,13.99
2023-10-30T01:02:33.289Z,13.91
2023-10-30T01:04:59.922Z,13.90
2023-10-30T01:07:26.443Z,14.00
2023-10-30T01:09:52.847Z,13.91
2023-10-30T01:12:19.291Z,13.86
2023-10-30T01:14:45.755Z,13.96
2023-10-30T01:17:12.221Z,13.95
2023-10-30T01:19:38.603Z,13.98
2023-10-30T01:22:05.100Z,14.05
2023-10-30T01:24:31.908Z,14.02
2023-10-30T01:26:58.382Z,13.90
2023-10-30T01:29:24.880Z,13.92
2023-10-30T01:31:51.362Z,14.02
2023-10-30T01:34:17.819Z,14.03
2023-10-30T01:36:44.328Z,13.79
2023-10-30T01:39:10.760Z,13.80
2023-10-30T01:41:37.183Z,13.87
2023-10-30T01:44:04.993Z,13.94
2023-10-30T01:46:31.412Z,13.89
2023-10-30T01:48:58.011Z,13.89
2023-10-30T01:51:24.509Z,13.92
2023-10-30T01:53:51.468Z,13.89
2023-10-30T01:56:18.626Z,13.83
2023-10-30T01:58:45.905Z,13.81
2023-10-30T02:01:13.265Z,13.76
2023-10-30T02:03:39.773Z,13.70
2023-10-30T02:06:08.027Z,13.69
2023-10-30T02:08:35.454Z,13.57
2023-10-30T02:11:02.025Z,13.47
2023-10-30T02:13:28.512Z,13.51
2023-10-30T02:15:55.188Z,13.64
2023-10-30T02:18:21.708Z,13.53
2023-10-30T02:20:48.535Z,13.71
2023-10-30T02:23:15.004Z,13.49
2023-10-30T02:25:41.398Z,13.42
2023-10-30T02:28:08.200Z,13.63
2023-10-30T02:30:34.617Z,13.59
2023-10-30T02:33:01.103Z,13.45
2023-10-30T02:35:27.943Z,13.46
2023-10-30T02:37:54.366Z,13.33
2023-10-30T02:40:20.900Z,13.27
2023-10-30T02:42:47.414Z,13.38
2023-10-30T02:45:13.963Z,13.57
2023-10-30T02:47:40.517Z,13.72
2023-10-30T02:50:07.654Z,13.64
2023-10-30T02:52:36.410Z,13.42
2023-10-30T02:55:03.876Z,13.69
2023-10-30T02:57:30.349Z,13.63
2023-10-30T02:59:56.789Z,13.39
2023-10-30T03:02:23.316Z,13.41
2023-10-30T03:04:50.101Z,13.42
2023-10-30T03:07:17.407Z,13.58
2023-10-30T03:09:43.932Z,13.63
2023-10-30T03:12:10.514Z,13.66
2023-10-30T03:14:37.527Z,13.30
2023-10-30T03:17:04.393Z,13.12
2023-10-30T03:19:30.782Z,13.16
2023-10-30T03:21:57.189Z,13.19
2023-10-30T03:24:23.680Z,13.29
2023-10-30T03:26:51.757Z,13.38
2023-10-30T03:29:18.512Z,13.24
2023-10-30T03:31:45.006Z,13.15
2023-10-30T03:34:11.594Z,13.01
2023-10-30T03:36:38.029Z,13.20
2023-10-30T03:39:05.217Z,13.28
2023-10-30T03:41:32.469Z,13.28
2023-10-30T03:43:58.989Z,13.03
2023-10-30T03:46:25.474Z,13.08
2023-10-30T03:48:51.913Z,13.18
2023-10-30T03:51:18.560Z,13.21
2023-10-30T03:53:45.023Z,13.16
2023-10-30T03:56:11.445Z,13.03
2023-10-30T03:58:37.868Z,13.04
2023-10-30T04:01:10.711Z,13.11
2023-10-30T04:03:37.200Z,13.13
2023-10-30T04:06:04.496Z,13.02
2023-10-30T04:08:31.396Z,13.16
2023-10-30T04:10:57.799Z,13.22
2023-10-30T04:13:24.430Z,13.11
2023-10-30T04:15:50.907Z,13.04
2023-10-30T04:18:17.870Z,13.12
2023-10-30T04:20:44.898Z,13.04
2023-10-30T04:23:11.328Z,13.00
2023-10-30T04:25:37.710Z,12.94
2023-10-30T04:28:04.326Z,12.92
2023-10-30T04:30:31.041Z,12.79
2023-10-30T04:32:58.476Z,12.77
2023-10-30T04:35:24.953Z,12.78
2023-10-30T04:37:51.932Z,12.78
2023-10-30T04:40:18.749Z,12.69
2023-10-30T04:42:45.331Z,12.74
2023-10-30T04:45:11.816Z,12.77
2023-10-30T04:47:38.442Z,12.70
2023-10-30T04:50:05.284Z,12.82
2023-10-30T04:52:31.748Z,12.83
2023-10-30T04:54:58.188Z,12.80
2023-10-30T04:57:24.591Z,13.08
2023-10-30T04:59:51.175Z,12.99
2023-10-30T05:02:17.694Z,13.14
2023-10-30T05:04:44.099Z,13.16
2023-10-30T05:07:10.577Z,13.05
2023-10-30T05:09:37.597Z,13.04
2023-10-30T05:12:04.424Z,13.02
2023-10-30T05:14:30.938Z,13.11
2023-10-30T05:16:57.354Z,13.20
2023-10-30T05:19:23.719Z,13.20
2023-10-30T05:21:50.144Z,13.19
2023-10-30T05:24:16.651Z,13.23
2023-10-30T05:26:43.109Z,13.20
2023-10-30T05:29:09.896Z,13.12
2023-10-30T05:31:36.439Z,12.92
2023-10-30T05:34:03.107Z,12.84
2023-10-30T05:36:30.008Z,12.87
2023-10-30T05:38:56.540Z,12.94
2023-10-30T05:41:22.961Z,13.06
2023-10-30T05:43:51.299Z,13.05
2023-10-30T05:46:17.865Z,13.19
2023-10-30T05:48:45.428Z,13.18
2023-10-30T05:51:12.542Z,13.12
2023-10-30T05:53:39.150Z,12.87
2023-10-30T05:56:05.814Z,12.81
2023-10-30T05:58:32.313Z,12.84
2023-10-30T06:00:58.747Z,12.94
2023-10-30T06:03:25.210Z,12.69
2023-10-30T06:05:51.680Z,12.88
2023-10-30T06:08:23.232Z,12.87
2023-10-30T06:10:51.729Z,12.91
2023-10-30T06:13:19.358Z,13.09
2023-10-30T06:15:45.780Z,13.18
2023-10-30T06:18:12.286Z,13.27
2023-10-30T06:20:38.695Z,13.27
2023-10-30T06:23:05.069Z,13.38
2023-10-30T06:25:31.460Z,13.38
2023-10-30T06:27:58.061Z,13.25
2023-10-30T06:30:24.552Z,13.36
2023-10-30T06:32:51.014Z,13.08
2023-10-30T06:35:17.509Z,13.19
2023-10-30T06:37:43.890Z,13.28
2023-10-30T06:40:11.114Z,13.32
2023-10-30T06:42:37.656Z,13.13
2023-10-30T06:45:04.982Z,13.37
2023-10-30T06:47:31.554Z,13.37
2023-10-30T06:49:58.997Z,13.47
2023-10-30T06:52:25.422Z,13.60
2023-10-30T06:54:51.856Z,13.62
2023-10-30T06:57:18.352Z,13.55
2023-10-30T06:59:44.978Z,13.31
2023-10-30T07:02:11.450Z,13.23
2023-10-30T07:04:38.926Z,13.24
2023-10-30T07:07:06.493Z,13.12
2023-10-30T07:09:32.975Z,13.23
2023-10-30T07:11:59.916Z,13.30
2023-10-30T07:14:26.710Z,13.34
2023-10-30T07:17:03.731Z,13.09
2023-10-30T07:19:31.657Z,13.04
2023-10-30T07:21:58.112Z,13.10
2023-10-30T07:24:24.629Z,13.07
2023-10-30T07:26:51.089Z,12.95
2023-10-30T07:29:17.494Z,13.01
2023-10-30T07:31:43.974Z,13.07
2023-10-30T07:34:10.367Z,13.10
2023-10-30T07:36:36.845Z,13.14
2023-10-30T07:39:03.389Z,13.04
2023-10-30T07:41:29.806Z,13.20
2023-10-30T07:43:56.262Z,13.10
2023-10-30T07:46:22.755Z,13.09
2023-10-30T07:48:49.319Z,13.15
2023-10-30T07:51:15.941Z,13.17
2023-10-30T07:53:42.408Z,13.17
2023-10-30T07:56:08.825Z,13.25
2023-10-30T07:58:35.552Z,13.26
2023-10-30T08:01:02.244Z,13.40
2023-10-30T08:03:28.846Z,13.42
2023-10-30T08:05:59.217Z,13.42
2023-10-30T08:08:25.608Z,13.30
2023-10-30T08:10:52.097Z,13.20
2023-10-30T08:13:18.526Z,13.26
2023-10-30T08:15:45.043Z,13.29
2023-10-30T08:18:11.516Z,13.33
2023-10-30T08:20:37.972Z,13.25
2023-10-30T08:23:04.514Z,13.21
2023-10-30T08:25:30.895Z,13.11
2023-10-30T08:28:01.222Z,13.17
2023-10-30T08:30:27.751Z,13.20
2023-10-30T08:32:54.196Z,13.12
2023-10-30T08:35:22.780Z,13.13
2023-10-30T08:37:49.967Z,13.13
2023-10-30T08:40:17.039Z,13.25
2023-10-30T08:42:43.780Z,13.36
2023-10-30T08:45:10.693Z,13.39
2023-10-30T08:47:37.338Z,13.34
2023-10-30T08:50:04.130Z,13.40
2023-10-30T08:52:30.682Z,13.41
2023-10-30T08:54:57.166Z,13.47
2023-10-30T08:57:23.686Z,13.38
2023-10-30T08:59:50.409Z,13.42
2023-10-30T09:02:17.258Z,13.43
2023-10-30T09:04:44.169Z,13.38
2023-10-30T09:07:10.982Z,13.54
2023-10-30T09:09:37.455Z,13.59
2023-10-30T09:12:03.976Z,13.66
2023-10-30T09:14:30.400Z,13.64
2023-10-30T09:16:56.934Z,13.68
2023-10-30T09:19:23.873Z,13.62
2023-10-30T09:21:50.306Z,13.58
2023-10-30T09:24:17.063Z,13.67
2023-10-30T09:26:43.561Z,13.82
2023-10-30T09:29:10.287Z,14.02
2023-10-30T09:31:36.844Z,14.11
2023-10-30T09:34:04.761Z,14.31
2023-10-30T09:36:31.256Z,14.17
2023-10-30T09:38:57.692Z,14.33
2023-10-30T09:41:28.524Z,14.50
2023-10-30T09:43:55.033Z,14.57
2023-10-30T09:46:27.618Z,14.77
2023-10-30T09:48:56.019Z,14.41
2023-10-30T09:51:23.697Z,14.63
2023-10-30T09:53:54.587Z,14.62
2023-10-30T09:56:22.409Z,14.47
2023-10-30T09:58:49.550Z,14.91
2023-10-30T10:01:16.150Z,14.80
2023-10-30T10:03:42.965Z,14.88
2023-10-30T10:06:09.615Z,14.92
2023-10-30T10:08:36.798Z,15.02
2023-10-30T10:11:04.037Z,15.18
2023-10-30T10:13:32.677Z,14.60
2023-10-30T10:16:00.648Z,14.89
2023-10-30T10:18:31.180Z,15.17
2023-10-30T10:21:02.551Z,14.78
2023-10-30T10:23:32.779Z,14.75
2023-10-30T10:26:01.062Z,14.88
2023-10-30T10:28:27.824Z,14.93
2023-10-30T10:30:54.574Z,14.75
2023-10-30T10:33:25.833Z,14.90
2023-10-30T10:35:54.416Z,14.96
2023-10-30T10:38:22.454Z,14.86
2023-10-30T10:40:49.734Z,14.96
2023-10-30T10:43:19.687Z,15.19
2023-10-30T10:45:50.632Z,14.93
2023-10-30T10:48:17.683Z,14.77
2023-10-30T10:50:44.309Z,15.13
2023-10-30T10:53:12.439Z,15.17
2023-10-30T10:55:41.413Z,15.07
2023-10-30T10:58:33.453Z,15.02
2023-10-30T11:01:02.317Z,15.15
2023-10-30T11:03:29.501Z,15.11
2023-10-30T11:05:56.574Z,15.12
2023-10-30T11:08:47.922Z,15.04
2023-10-30T11:11:20.892Z,15.18
2023-10-30T11:14:16.099Z,15.30
2023-10-30T11:16:47.982Z,15.26
2023-10-30T11:19:19.800Z,15.31
2023-10-30T11:21:49.233Z,15.50
2023-10-30T11:24:38.662Z,15.54
2023-10-30T11:27:26.915Z,15.43
2023-10-30T11:29:57.641Z,15.43
2023-10-30T11:32:30.938Z,15.65
2023-10-30T11:34:57.395Z,15.66
2023-10-30T11:37:23.801Z,15.91
2023-10-30T11:39:51.224Z,15.69
2023-10-30T11:42:23.797Z,15.64
2023-10-30T11:44:51.281Z,15.78
2023-10-30T11:47:24.586Z,15.84
2023-10-30T11:49:56.274Z,15.50
2023-10-30T11:52:24.150Z,15.71
2023-10-30T11:54:51.010Z,15.76
2023-10-30T11:57:18.377Z,15.54
2023-10-30T11:59:44.800Z,15.83
2023-10-30T12:02:11.223Z,15.78
2023-10-30T12:04:37.866Z,15.93
2023-10-30T12:07:05.521Z,15.76
2023-10-30T12:09:32.191Z,15.55
2023-10-30T12:11:58.698Z,15.65
2023-10-30T12:14:25.271Z,15.57
2023-10-30T12:16:53.241Z,15.72
2023-10-30T12:19:21.564Z,15.70
2023-10-30T12:21:52.485Z,15.67
2023-10-30T12:24:19.915Z,16.00
2023-10-30T12:26:49.940Z,16.14
2023-10-30T12:29:22.450Z,15.85
2023-10-30T12:32:12.987Z,15.77
2023-10-30T12:34:39.706Z,15.95
2023-10-30T12:37:24.766Z,15.72
2023-10-30T12:40:13.961Z,15.73
2023-10-30T12:42:43.313Z,15.76
2023-10-30T12:45:13.404Z,15.69
2023-10-30T12:47:41.110Z,15.84
2023-10-30T12:50:08.879Z,15.64
2023-10-30T12:52:35.938Z,15.67
2023-10-30T12:55:02.517Z,15.58
2023-10-30T12:57:29.162Z,15.48
2023-10-30T12:59:55.657Z,15.54
2023-10-30T13:02:22.704Z,15.49
2023-10-30T13:04:49.664Z,15.66
2023-10-30T13:07:18.013Z,15.65
2023-10-30T13:09:46.949Z,15.48
2023-10-30T13:12:13.588Z,15.67
2023-10-30T13:14:40.060Z,15.61
2023-10-30T13:17:06.540Z,15.65
2023-10-30T13:19:33.757Z,15.63
2023-10-30T13:22:00.578Z,15.57
2023-10-30T13:24:27.232Z,15.67
2023-10-30T13:26:53.744Z,15.78
2023-10-30T13:29:20.225Z,15.78
2023-10-30T13:31:46.601Z,15.76
2023-10-30T13:34:13.426Z,15.78
2023-10-30T13:36:39.871Z,15.70
2023-10-30T13:39:06.970Z,15.94
2023-10-30T13:41:33.389Z,15.83
2023-10-30T13:43:59.859Z,15.67
2023-10-30T13:46:26.260Z,15.76
2023-10-30T13:48:55.531Z,15.84
2023-10-30T13:51:22.097Z,15.69
2023-10-30T13:53:51.140Z,15.65
2023-10-30T13:56:17.548Z,15.60
2023-10-30T13:58:44.217Z,15.54
2023-10-30T14:01:10.682Z,15.69
2023-10-30T14:03:37.216Z,15.80
2023-10-30T14:06:03.962Z,15.63
2023-10-30T14:08:30.424Z,15.76
2023-10-30T14:10:57.201Z,15.84
2023-10-30T14:13:23.578Z,15.67
2023-10-30T14:15:50.036Z,15.70
2023-10-30T14:18:16.498Z,15.60
2023-10-30T14:20:42.916Z,15.60
2023-10-30T14:23:09.314Z,15.47
2023-10-30T14:25:35.686Z,15.60
2023-10-30T14:28:02.104Z,15.55
2023-10-30T14:30:29.251Z,15.51
2023-10-30T14:32:55.851Z,15.57
2023-10-30T14:35:22.246Z,15.58
2023-10-30T14:37:48.656Z,15.55
2023-10-30T14:40:15.386Z,15.51
2023-10-30T14:42:41.849Z,15.47
2023-10-30T14:45:08.681Z,15.40
2023-10-30T14:47:35.180Z,15.49
2023-10-30T14:50:01.657Z,15.32
2023-10-30T14:52:28.086Z,15.25
2023-10-30T14:54:54.545Z,15.25
2023-10-30T14:57:21.090Z,15.31
2023-10-30T14:59:47.525Z,15.23
2023-10-30T15:02:14.107Z,15.14
2023-10-30T15:04:40.757Z,15.28
2023-10-30T15:07:07.396Z,15.48
2023-10-30T15:09:33.947Z,15.53
2023-10-30T15:12:00.394Z,15.39
2023-10-30T15:14:27.437Z,15.34
2023-10-30T15:16:53.936Z,15.23
2023-10-30T15:19:20.389Z,15.19
2023-10-30T15:21:46.805Z,15.12
2023-10-30T15:24:13.338Z,15.21
2023-10-30T15:26:40.257Z,15.31
2023-10-30T15:29:06.676Z,15.41
2023-10-30T15:31:33.045Z,15.52
2023-10-30T15:34:00.275Z,15.48
2023-10-30T15:36:26.815Z,15.41
2023-10-30T15:38:53.269Z,15.58
2023-10-30T15:41:19.710Z,15.51
2023-10-30T15:43:46.133Z,15.49
2023-10-30T15:46:12.719Z,15.52
2023-10-30T15:48:39.793Z,15.51
2023-10-30T15:51:07.584Z,15.47
2023-10-30T16:01:09.470Z,15.50
2023-10-30T16:03:36.953Z,15.40
2023-10-30T16:06:06.035Z,15.43
2023-10-30T16:16:02.279Z,15.40
2023-10-30T16:18:29.091Z,15.38
2023-10-30T16:23:24.896Z,15.44
2023-10-30T16:25:51.529Z,15.60
2023-10-30T16:28:17.998Z,15.72
2023-10-30T16:30:44.455Z,15.84
2023-10-30T16:33:10.937Z,16.03
2023-10-30T16:35:37.747Z,16.00
2023-10-30T16:38:04.136Z,15.64
2023-10-30T16:40:30.592Z,16.03
2023-10-30T16:42:57.011Z,15.78
2023-10-30T16:45:23.476Z,16.10
2023-10-30T16:47:49.886Z,16.07
2023-10-30T16:50:16.925Z,15.86
2023-10-30T16:52:43.428Z,16.14
2023-10-30T16:55:09.989Z,16.11
2023-10-30T16:57:36.495Z,15.79
2023-10-30T17:00:03.562Z,15.78
2023-10-30T17:02:30.113Z,16.00
2023-10-30T17:04:56.617Z,15.78
2023-10-30T17:07:23.116Z,15.86
2023-10-30T17:09:49.761Z,15.73
2023-10-30T17:12:16.308Z,16.02
2023-10-30T17:14:42.745Z,16.35
2023-10-30T17:17:09.481Z,16.24
2023-10-30T17:19:36.004Z,15.92
2023-10-30T17:22:02.501Z,15.38
2023-10-30T17:24:28.995Z,14.99
2023-10-30T17:26:55.450Z,15.25
2023-10-30T17:29:21.933Z,15.09
2023-10-30T17:31:48.429Z,15.21
2023-10-30T17:34:14.839Z,15.14
2023-10-30T17:36:41.472Z,15.49
2023-10-30T17:39:09.652Z,15.66
2023-10-30T17:41:36.055Z,15.60
2023-10-30T17:44:02.474Z,15.81
2023-10-30T17:46:29.164Z,15.76
2023-10-30T17:48:55.860Z,15.70
2023-10-30T17:51:22.328Z,15.81
2023-10-30T17:53:48.756Z,15.62
2023-10-30T17:56:15.141Z,15.56
2023-10-30T17:58:41.600Z,15.52
2023-10-30T18:01:12.480Z,15.36
2023-10-30T18:03:39.070Z,15.30
2023-10-30T18:06:06.027Z,15.43
2023-10-30T18:08:32.437Z,15.50
2023-10-30T18:10:58.927Z,15.54
2023-10-30T18:13:25.374Z,15.67
2023-10-30T18:15:52.066Z,15.64
2023-10-30T18:18:18.553Z,15.66
2023-10-30T18:20:45.000Z,15.70
2023-10-30T18:23:11.558Z,15.65
2023-10-30T18:25:38.137Z,15.47
2023-10-30T18:28:08.546Z,15.70
2023-10-30T18:30:36.452Z,15.55
2023-10-30T18:33:02.884Z,15.64
2023-10-30T18:35:29.411Z,15.66
2023-10-30T18:37:56.049Z,15.33
2023-10-30T18:40:22.505Z,15.37
2023-10-30T18:42:48.910Z,15.53
2023-10-30T18:45:15.518Z,15.46
2023-10-30T18:47:42.437Z,15.55
2023-10-30T18:50:09.273Z,15.64
2023-10-30T18:52:35.751Z,15.54
2023-10-30T18:55:02.181Z,15.47
2023-10-30T18:57:28.718Z,15.52
2023-10-30T18:59:55.181Z,15.49
2023-10-30T19:02:21.776Z,15.54
2023-10-30T19:04:48.391Z,15.10
2023-10-30T19:07:14.808Z,14.87
2023-10-30T19:09:41.216Z,15.00
2023-10-30T19:12:08.026Z,14.80
2023-10-30T19:14:35.489Z,14.86
2023-10-30T19:17:02.202Z,14.95
2023-10-30T19:19:28.683Z,14.80
2023-10-30T19:21:55.169Z,14.78
2023-10-30T19:24:21.590Z,14.80
2023-10-30T19:26:48.064Z,14.84
2023-10-30T19:29:14.639Z,14.96
2023-10-30T19:31:41.265Z,15.09
2023-10-30T19:34:07.933Z,15.26
2023-10-30T19:36:34.412Z,14.83
2023-10-30T19:39:00.974Z,14.84
2023-10-30T19:41:27.547Z,14.88
2023-10-30T19:43:56.309Z,15.13
2023-10-30T19:46:29.277Z,15.22
2023-10-30T19:48:59.928Z,15.36
2023-10-30T19:51:26.468Z,15.30
2023-10-30T19:53:52.964Z,15.15
2023-10-30T19:56:20.154Z,15.15
2023-10-30T19:58:46.654Z,15.30
2023-10-30T20:01:13.072Z,15.40
2023-10-30T20:03:39.457Z,15.54
2023-10-30T20:06:05.941Z,15.32
2023-10-30T20:08:33.608Z,15.36
2023-10-30T20:11:00.084Z,15.40
2023-10-30T20:13:27.549Z,15.34
2023-10-30T20:15:54.181Z,15.35
2023-10-30T20:18:20.560Z,15.35
2023-10-30T20:20:46.950Z,15.38
2023-10-30T20:23:13.344Z,15.33
2023-10-30T20:25:39.866Z,15.09
2023-10-30T20:28:06.344Z,15.15
2023-10-30T20:30:32.745Z,15.11
2023-10-30T20:32:59.184Z,15.23
2023-10-30T20:35:25.830Z,15.43
2023-10-30T20:37:52.235Z,15.35
2023-10-30T20:40:18.808Z,15.40
2023-10-30T20:42:45.254Z,15.40
2023-10-30T20:45:11.781Z,15.25
2023-10-30T20:47:39.105Z,15.01
2023-10-30T20:50:06.746Z,15.10
2023-10-30T20:52:33.522Z,15.19
2023-10-30T20:55:00.054Z,14.91
2023-10-30T20:57:26.470Z,15.02
2023-10-30T20:59:53.071Z,14.87
2023-10-30T21:02:20.035Z,14.84
2023-10-30T21:04:47.334Z,14.97
2023-10-30T21:07:13.967Z,15.02
2023-10-30T21:09:42.525Z,15.02
2023-10-30T21:12:09.391Z,15.01
2023-10-30T21:14:37.157Z,15.05
2023-10-30T21:17:03.725Z,15.03
2023-10-30T21:19:30.902Z,15.10
2023-10-30T21:21:57.304Z,15.10
2023-10-30T21:24:23.680Z,15.05
2023-10-30T21:26:50.201Z,15.15
2023-10-30T21:29:19.464Z,15.01
2023-10-30T21:31:46.718Z,15.14
2023-10-30T21:34:13.181Z,15.01
2023-10-30T21:36:39.578Z,15.11
2023-10-30T21:39:05.952Z,15.01
2023-10-30T21:41:32.370Z,14.97
2023-10-30T21:44:00.740Z,15.07
2023-10-30T21:46:30.846Z,15.16
2023-10-30T21:48:58.258Z,15.14
2023-10-30T21:51:24.827Z,15.25
2023-10-30T21:53:53.706Z,15.24
2023-10-30T21:56:21.148Z,15.11
2023-10-30T21:58:47.914Z,15.09
2023-10-30T22:01:16.340Z,15.15
2023-10-30T22:03:42.913Z,15.13
2023-10-30T22:06:09.368Z,15.05
2023-10-30T22:08:35.774Z,15.14
2023-10-30T22:11:02.315Z,15.20
2023-10-30T22:13:28.804Z,15.14
2023-10-30T22:15:55.200Z,15.18
2023-10-30T22:18:22.511Z,15.15
2023-10-30T22:20:48.889Z,15.15
2023-10-30T22:23:15.282Z,15.21
2023-10-30T22:25:41.712Z,14.97
2023-10-30T22:28:09.078Z,14.87
2023-10-30T22:30:35.654Z,14.96
2023-10-30T22:33:02.131Z,14.85
2023-10-30T22:35:28.601Z,14.86
2023-10-30T22:37:55.043Z,14.74
2023-10-30T22:40:21.453Z,14.77
2023-10-30T22:42:47.843Z,14.80
2023-10-30T22:45:14.306Z,14.90
2023-10-30T22:47:40.796Z,14.79
2023-10-30T22:50:08.068Z,14.68
2023-10-30T22:52:34.611Z,14.62
2023-10-30T22:55:01.188Z,14.60
2023-10-30T22:57:27.845Z,14.70
2023-10-30T22:59:54.219Z,14.57
2023-10-30T23:02:20.638Z,14.62
2023-10-30T23:04:47.031Z,14.67
2023-10-30T23:07:13.511Z,14.59
2023-10-30T23:09:40.266Z,14.45
2023-10-30T23:12:07.047Z,14.57
2023-10-30T23:14:33.661Z,14.57
2023-10-30T23:17:01.563Z,14.44
2023-10-30T23:19:28.025Z,14.43
2023-10-30T23:21:54.528Z,14.27
2023-10-30T23:24:20.952Z,14.52
2023-10-30T23:26:47.469Z,14.42
2023-10-30T23:29:13.902Z,14.31
2023-10-30T23:31:40.322Z,14.36
2023-10-30T23:34:07.681Z,14.39
2023-10-30T23:36:34.100Z,14.25
2023-10-30T23:39:00.473Z,14.17
2023-10-30T23:41:26.870Z,14.14
2023-10-30T23:43:53.332Z,14.10
2023-10-30T23:46:28.080Z,13.94
2023-10-30T23:49:01.645Z,13.86
2023-10-30T23:51:28.043Z,13.95
2023-10-30T23:53:54.428Z,13.83
2023-10-30T23:56:21.015Z,13.72
2023-10-30T23:58:47.429Z,13.72
